Weather at Alice International Airport

Public forecast

Using degrees Fahrenheit for public forecast. Weather courtesy of forecast.io.

Current aviation weather report (METAR) for Alice International Airport

2024/07/20 15:53 (retrieved 46 minutes ago)

KALI 201553Z AUTO 23008KT 10SM FEW022 32/24 A3001 RMK AO2 SLP161 T03220239

Aviation forecast (TAF) for Alice International Airport

2024/07/20 12:33 (retrieved 4 hours ago)

TAF KALI 201130Z 2012/2112 VRB03KT P6SM VCSH FEW025 SCT110 TEMPO 2012/2014 3SM -RA BR FM201400 16006KT P6SM FEW030 SCT110 FM202100 13012KT P6SM VCTS FEW030CB FEW250 FM210200 15007KT P6SM FEW250